createdAt,value
2018-10-18T00:05:38.282Z,4.21
2018-10-18T00:11:33.273Z,4.49
2018-10-18T00:17:28.246Z,4.57
2018-10-18T00:23:23.274Z,4.4
2018-10-18T00:29:18.283Z,4.31
2018-10-18T00:35:13.261Z,3.73
2018-10-18T00:41:08.310Z,4.41
2018-10-18T00:47:03.287Z,3.91
2018-10-18T00:52:58.269Z,4.2
2018-10-18T00:58:53.315Z,3.79
2018-10-18T01:04:48.292Z,3.72
2018-10-18T01:10:43.298Z,4.11
2018-10-18T01:16:38.320Z,3.77
2018-10-18T01:22:33.376Z,3.82
2018-10-18T01:28:28.322Z,3.83
2018-10-18T01:34:23.336Z,3.8
2018-10-18T01:40:18.309Z,3.79
2018-10-18T01:46:13.342Z,3.85
2018-10-18T01:52:08.345Z,3.94
2018-10-18T01:58:03.376Z,4.34
2018-10-18T02:03:58.356Z,3.7
2018-10-18T02:09:53.338Z,3.96
2018-10-18T02:15:48.351Z,3.67
2018-10-18T02:21:43.338Z,4.03
2018-10-18T02:27:38.333Z,3.65
2018-10-18T02:33:33.365Z,4.39
2018-10-18T02:39:28.371Z,3.9
2018-10-18T02:45:23.432Z,3.68
2018-10-18T02:51:18.372Z,4.25
2018-10-18T02:57:13.431Z,3.75
2018-10-18T03:03:08.445Z,3.35
2018-10-18T03:09:03.382Z,4.05
2018-10-18T03:14:58.419Z,3.75
2018-10-18T03:20:53.387Z,3.92
2018-10-18T03:26:48.376Z,4.2
2018-10-18T03:32:43.430Z,3.93
2018-10-18T03:38:38.403Z,4.34
2018-10-18T03:44:33.401Z,3.98
2018-10-18T03:50:28.439Z,4.59
2018-10-18T03:56:23.464Z,4.71
2018-10-18T04:02:18.399Z,10.84
2018-10-18T04:08:13.478Z,4.45
2018-10-18T04:14:08.411Z,4.15
2018-10-18T04:20:03.442Z,4.81
2018-10-18T04:25:58.454Z,4.63
2018-10-18T04:31:53.423Z,3.61
2018-10-18T04:37:48.413Z,4.15
2018-10-18T04:43:43.448Z,5.68
2018-10-18T04:49:38.439Z,5.13
2018-10-18T04:55:33.458Z,5.05
2018-10-18T05:01:28.442Z,4.26
2018-10-18T05:07:23.460Z,4.5
2018-10-18T05:13:18.563Z,4.26
2018-10-18T05:19:13.567Z,4.57
2018-10-18T05:25:08.726Z,4.58
2018-10-18T05:31:03.659Z,4.47
2018-10-18T05:36:58.500Z,3.99
2018-10-18T05:42:53.535Z,4.73
2018-10-18T05:48:48.475Z,4.68
2018-10-18T05:54:43.531Z,4.36
2018-10-18T06:00:38.488Z,5.18
2018-10-18T06:06:33.526Z,6.45
2018-10-18T06:12:28.474Z,5.8
2018-10-18T06:18:23.523Z,6.04
2018-10-18T06:24:18.497Z,6.88
2018-10-18T06:30:13.565Z,6.4
2018-10-18T06:36:08.503Z,6.09
2018-10-18T06:42:03.521Z,6.29
2018-10-18T06:47:58.716Z,7
2018-10-18T06:53:53.535Z,8.06
2018-10-18T06:59:48.594Z,7.1
2018-10-18T07:05:43.567Z,7.11
2018-10-18T07:11:38.561Z,6.65
2018-10-18T07:17:33.581Z,6.91
2018-10-18T07:23:28.539Z,7.21
2018-10-18T07:29:23.551Z,7.25
2018-10-18T07:35:18.546Z,7.09
2018-10-18T07:41:13.565Z,6.53
2018-10-18T07:47:08.578Z,6.96
2018-10-18T07:53:03.671Z,7.12
2018-10-18T07:58:58.564Z,6.25
2018-10-18T08:04:53.537Z,6.83
2018-10-18T08:10:48.694Z,5.98
2018-10-18T08:16:43.615Z,5.59
2018-10-18T08:22:38.611Z,6.63
2018-10-18T08:28:33.557Z,5.85
2018-10-18T08:34:28.577Z,6.19
2018-10-18T08:40:23.573Z,5.59
2018-10-18T08:46:18.619Z,5.4
2018-10-18T08:52:13.572Z,5.41
2018-10-18T08:58:08.608Z,5.72
2018-10-18T09:04:03.582Z,5.54
2018-10-18T09:09:58.635Z,5.07
2018-10-18T09:15:53.678Z,5.31
2018-10-18T09:21:48.645Z,5.43
2018-10-18T09:27:43.598Z,4.87
2018-10-18T09:33:38.600Z,5.37
2018-10-18T09:39:33.603Z,5.43
2018-10-18T09:45:28.669Z,5.42
2018-10-18T09:51:23.606Z,6.25
2018-10-18T09:57:18.639Z,5.23
2018-10-18T10:03:13.638Z,5.3
2018-10-18T10:09:08.635Z,5.8
2018-10-18T10:15:03.679Z,5.3
2018-10-18T10:20:58.677Z,5.31
2018-10-18T10:26:53.751Z,4.86
2018-10-18T10:32:48.774Z,9.95
2018-10-18T10:38:43.704Z,5.13
2018-10-18T10:44:38.701Z,4.84
2018-10-18T10:50:33.759Z,4.76
2018-10-18T10:56:28.667Z,4.61
2018-10-18T11:02:23.683Z,4.7
2018-10-18T11:08:18.683Z,4.8
2018-10-18T11:14:13.788Z,4.19
2018-10-18T11:20:08.767Z,4.53
2018-10-18T11:26:03.748Z,4.17
2018-10-18T11:31:58.745Z,4.17
2018-10-18T11:37:53.702Z,4.15
2018-10-18T11:43:48.688Z,4.24
2018-10-18T11:49:43.689Z,4.45
2018-10-18T11:55:38.739Z,4.19
2018-10-18T12:01:33.700Z,4.03
2018-10-18T12:07:28.695Z,3.56
2018-10-18T12:13:23.831Z,4.45
2018-10-18T12:19:18.715Z,4.36
2018-10-18T12:25:13.716Z,3.55
2018-10-18T12:31:08.733Z,3.88
2018-10-18T12:37:03.726Z,4.64
2018-10-18T12:42:58.745Z,3.98
2018-10-18T12:48:53.768Z,4.2
2018-10-18T12:54:48.739Z,3.73
2018-10-18T13:00:43.775Z,3.77
2018-10-18T13:06:38.741Z,4.65
2018-10-18T13:12:34.101Z,3.95
2018-10-18T13:18:28.777Z,4.22
2018-10-18T13:24:23.744Z,3.95
2018-10-18T13:30:18.751Z,3.75
2018-10-18T13:36:13.919Z,3.88
2018-10-18T13:42:08.846Z,3.73
2018-10-18T13:48:03.834Z,4.27
2018-10-18T13:53:58.796Z,3.88
2018-10-18T13:59:53.923Z,3.77
2018-10-18T14:05:48.980Z,4.12
2018-10-18T14:11:43.809Z,4.33
2018-10-18T14:17:38.928Z,3.67
2018-10-18T14:23:33.861Z,4.03
2018-10-18T14:29:28.822Z,3.74
2018-10-18T14:35:23.814Z,4.05
2018-10-18T14:41:18.903Z,4.4
2018-10-18T14:47:13.890Z,4.2
2018-10-18T14:53:08.941Z,4.57
2018-10-18T14:59:03.954Z,4.77
2018-10-18T15:04:58.816Z,4.57
2018-10-18T15:10:53.813Z,5.1
2018-10-18T15:16:48.878Z,4.89
2018-10-18T15:22:43.864Z,5.75
2018-10-18T15:28:38.841Z,4.95
2018-10-18T15:34:33.874Z,5.82
2018-10-18T15:40:28.842Z,5.34
2018-10-18T15:46:23.845Z,5.28
2018-10-18T15:52:18.889Z,5.17
2018-10-18T15:58:13.938Z,6.44
2018-10-18T16:04:08.875Z,5.9
2018-10-18T16:10:03.899Z,5.91
2018-10-18T16:15:58.856Z,6.6
2018-10-18T16:21:53.873Z,6.9
2018-10-18T16:27:48.917Z,7.13
2018-10-18T16:33:43.982Z,6.65
2018-10-18T16:39:38.935Z,7.15
2018-10-18T16:45:33.878Z,7.67
2018-10-18T16:51:28.886Z,7.01
2018-10-18T16:57:23.912Z,6.6
2018-10-18T17:03:18.890Z,7.44
2018-10-18T17:09:13.916Z,7.31
2018-10-18T17:15:08.882Z,7.89
2018-10-18T17:21:03.980Z,8.66
2018-10-18T17:26:58.939Z,7.98
2018-10-18T17:32:53.927Z,7.94
2018-10-18T17:38:48.967Z,8.21
2018-10-18T17:44:43.963Z,8.17
2018-10-18T17:50:38.951Z,8.18
2018-10-18T17:56:33.964Z,8.29
2018-10-18T18:02:28.932Z,8.71
2018-10-18T18:08:23.977Z,8.79
2018-10-18T18:14:18.945Z,9.02
2018-10-18T18:20:13.950Z,8.83
2018-10-18T18:26:08.981Z,8.43
2018-10-18T18:32:03.963Z,8.74
2018-10-18T18:37:59.029Z,7.94
2018-10-18T18:43:53.971Z,8.15
2018-10-18T18:49:48.993Z,7.91
2018-10-18T18:55:43.994Z,8.07
2018-10-18T19:01:38.967Z,8.59
2018-10-18T19:07:34.018Z,8.41
2018-10-18T19:13:29.051Z,8.76
2018-10-18T19:19:24.024Z,7.54
2018-10-18T19:25:19.007Z,8.34
2018-10-18T19:31:14.024Z,9.45
2018-10-18T19:37:08.998Z,8.3
2018-10-18T19:43:03.996Z,8.6
2018-10-18T19:48:59.002Z,8.08
2018-10-18T19:54:54.007Z,7.82
2018-10-18T20:00:49.008Z,8.27
2018-10-18T20:06:44.031Z,8.67
2018-10-18T20:12:39.022Z,8.46
2018-10-18T20:18:34.136Z,10.46
2018-10-18T20:24:29.111Z,8.93
2018-10-18T20:30:24.036Z,9.61
2018-10-18T20:36:19.022Z,9.56
2018-10-18T20:42:14.031Z,9.87
2018-10-18T20:48:09.224Z,9.07
2018-10-18T20:54:04.122Z,9.51
2018-10-18T20:59:59.105Z,10.47
2018-10-18T21:05:54.106Z,10.86
2018-10-18T21:11:49.056Z,11.99
2018-10-18T21:17:44.057Z,13.15
2018-10-18T21:23:39.061Z,12.21
2018-10-18T21:29:34.058Z,12.84
2018-10-18T21:35:29.085Z,13.18
2018-10-18T21:41:24.096Z,13.45
2018-10-18T21:47:19.091Z,13.44
2018-10-18T21:53:14.221Z,12.68
2018-10-18T21:59:09.097Z,12.22
2018-10-18T22:05:04.153Z,12.68
2018-10-18T22:10:59.131Z,14.31
2018-10-18T22:16:54.181Z,15.81
2018-10-18T22:22:49.105Z,14.77
2018-10-18T22:28:44.094Z,14.82
2018-10-18T22:34:39.113Z,14.32
2018-10-18T22:40:34.117Z,15.84
2018-10-18T22:46:29.115Z,14.83
2018-10-18T22:52:24.181Z,16.23
2018-10-18T22:58:19.119Z,14.11
2018-10-18T23:04:14.148Z,14.85
2018-10-18T23:10:09.131Z,15.63
2018-10-18T23:16:04.116Z,15.57
2018-10-18T23:21:59.145Z,14.23
2018-10-18T23:27:54.157Z,15.48
2018-10-18T23:33:49.152Z,16.54
2018-10-18T23:39:44.184Z,16.97
2018-10-18T23:45:39.170Z,16.03
2018-10-18T23:51:34.169Z,15.59
2018-10-18T23:57:29.174Z,15.21
